Aérodrome :
LOGIN :

S'inscrire | Disclaimer

   EN    FR    IT 

 










Légende :    VFR   VFR Marginal   IFR   IFR Intensif   IFR Très Intensif
Visi : 
Plafond : 
>= 8 km
>= 3000ft
5 à 8 km
1000 à 3000 ft
1500m à 5 km
500 à 1000 ft
800 à 1500m
200 à 500 ft
< 800m
< 200 ft
Symboles :   Orages  Brouillard  Fortes neiges  Fortes précipitations  Vent > 20 kt
SIGMETs :   Divers  Orages  Givrage  Turbulence  Onde Orograph.  Cendres Volcan.







- Altitude de l'aérodrome : 84 ft
- Voir les cartes d'approche


LFBC - Cazaux

DERNIER METAR :
  • 210430Z AUTO 36001KT CAVOK 07/06 Q1016

METARs EXPIRÉS :
  • 210400Z AUTO 00000KT CAVOK 08/06 Q1016
  • 210330Z AUTO 00000KT CAVOK 09/07 Q1017
  • 210300Z AUTO 04002KT CAVOK 09/07 Q1017
  • 210230Z AUTO VRB02KT CAVOK 09/06 Q1017
  • 210200Z AUTO VRB01KT CAVOK 09/07 Q1017

TAF TAF LFBC
Valide du 20 à 21h jusqu'au 21 à 21h UTC


202000Z 2021/2121 08005KT CAVOK
PROB30
TEMPO 2105/2107 2500 MIFG
TEMPO 2112/2116 31012KT
BECMG 2117/2118 SCT010 BKN014
TEMPO 2118/2121 BKN007 OVC010
Pas de NOTAMs connus pour ce terrain.



MET'MAP, la Météo Aéronautique d'un coup d'oeil ! - Copyright ORBIFLY Décembre 2007 - Disclaimer

ORBIFLY MET'MAP TEAM :

Programmation & Développement : Alexandra Zaïnal
Conception & Développement : Baudouin d'Aumeries
Co-Programmation & Développement : Marc-Olivier Méhu
Soutien technique & logistique : Manuel Goepfert

Contact : metmap@orbifly.com




SOURCES & CREDITS :

   NOAA